sensor_id;sensor_type;location;lat;lon;timestamp;pressure;altitude;pressure_sealevel;temperature;humidity
22830;BME280;11581;51.250;6.778;2022-11-25T00:01:06;100753.53;;;10.89;68.06
22830;BME280;11581;51.250;6.778;2022-11-25T00:03:34;100752.72;;;10.88;67.97
22830;BME280;11581;51.250;6.778;2022-11-25T00:06:10;100710.03;;;10.61;67.39
22830;BME280;11581;51.250;6.778;2022-11-25T00:08:37;100683.97;;;10.55;68.02
22830;BME280;11581;51.250;6.778;2022-11-25T00:11:06;100721.75;;;10.78;68.30
22830;BME280;11581;51.250;6.778;2022-11-25T00:13:36;100726.63;;;10.82;68.10
22830;BME280;11581;51.250;6.778;2022-11-25T00:16:05;100720.88;;;10.77;68.19
22830;BME280;11581;51.250;6.778;2022-11-25T00:18:32;100730.22;;;10.91;68.37
22830;BME280;11581;51.250;6.778;2022-11-25T00:21:04;100712.28;;;10.83;67.78
22830;BME280;11581;51.250;6.778;2022-11-25T00:23:32;100653.09;;;10.53;68.29
22830;BME280;11581;51.250;6.778;2022-11-25T00:26:05;100713.28;;;10.82;67.84
22830;BME280;11581;51.250;6.778;2022-11-25T00:28:32;100721.91;;;10.94;68.32
22830;BME280;11581;51.250;6.778;2022-11-25T00:31:06;100731.53;;;11.04;67.73
22830;BME280;11581;51.250;6.778;2022-11-25T00:33:33;100677.53;;;10.75;68.20
22830;BME280;11581;51.250;6.778;2022-11-25T00:36:00;100739.25;;;11.07;68.41
22830;BME280;11581;51.250;6.778;2022-11-25T00:38:28;100733.06;;;11.07;68.18
22830;BME280;11581;51.250;6.778;2022-11-25T00:40:55;100710.78;;;10.98;68.24
22830;BME280;11581;51.250;6.778;2022-11-25T00:43:36;100715.84;;;11.01;68.28
22830;BME280;11581;51.250;6.778;2022-11-25T00:46:23;100725.59;;;11.10;68.13
22830;BME280;11581;51.250;6.778;2022-11-25T00:48:49;100747.13;;;11.09;68.22
22830;BME280;11581;51.250;6.778;2022-11-25T00:51:18;100716.81;;;11.00;68.39
22830;BME280;11581;51.250;6.778;2022-11-25T00:53:45;100728.28;;;11.10;68.27
22830;BME280;11581;51.250;6.778;2022-11-25T00:56:12;100720.72;;;11.06;68.22
22830;BME280;11581;51.250;6.778;2022-11-25T00:58:39;100688.28;;;10.83;68.25
22830;BME280;11581;51.250;6.778;2022-11-25T01:01:06;100682.28;;;10.81;68.42
22830;BME280;11581;51.250;6.778;2022-11-25T01:03:36;100682.13;;;10.83;68.06
22830;BME280;11581;51.250;6.778;2022-11-25T01:06:05;100674.28;;;10.81;68.19
22830;BME280;11581;51.250;6.778;2022-11-25T01:08:34;100727.72;;;11.07;68.20
22830;BME280;11581;51.250;6.778;2022-11-25T01:11:03;100726.88;;;11.06;68.27
22830;BME280;11581;51.250;6.778;2022-11-25T01:13:31;100730.53;;;11.05;68.42
22830;BME280;11581;51.250;6.778;2022-11-25T01:15:59;100693.13;;;10.70;68.34
22830;BME280;11581;51.250;6.778;2022-11-25T01:18:29;100687.97;;;10.86;68.57
22830;BME280;11581;51.250;6.778;2022-11-25T01:21:05;100712.75;;;10.96;68.11
22830;BME280;11581;51.250;6.778;2022-11-25T01:23:32;100725.06;;;11.07;68.73
22830;BME280;11581;51.250;6.778;2022-11-25T01:26:02;100693.00;;;10.89;68.57
22830;BME280;11581;51.250;6.778;2022-11-25T01:28:30;100682.94;;;10.83;68.80
22830;BME280;11581;51.250;6.778;2022-11-25T01:31:00;100715.91;;;11.09;68.32
22830;BME280;11581;51.250;6.778;2022-11-25T01:33:28;100695.44;;;11.00;68.70
22830;BME280;11581;51.250;6.778;2022-11-25T01:35:59;100727.97;;;11.13;68.54
22830;BME280;11581;51.250;6.778;2022-11-25T01:38:29;100721.63;;;11.14;68.59
22830;BME280;11581;51.250;6.778;2022-11-25T01:40:56;100653.59;;;10.83;68.86
22830;BME280;11581;51.250;6.778;2022-11-25T01:43:23;100683.09;;;10.99;68.71
22830;BME280;11581;51.250;6.778;2022-11-25T01:45:50;100715.69;;;11.20;68.83
22830;BME280;11581;51.250;6.778;2022-11-25T01:48:22;100702.72;;;11.08;68.25
22830;BME280;11581;51.250;6.778;2022-11-25T01:50:52;100718.06;;;11.23;68.97
22830;BME280;11581;51.250;6.778;2022-11-25T01:53:20;100725.78;;;11.26;68.82
22830;BME280;11581;51.250;6.778;2022-11-25T01:55:52;100614.78;;;10.71;68.46
22830;BME280;11581;51.250;6.778;2022-11-25T01:58:24;100717.75;;;11.26;68.75
22830;BME280;11581;51.250;6.778;2022-11-25T02:00:52;100717.13;;;11.32;68.86
22830;BME280;11581;51.250;6.778;2022-11-25T02:03:22;100672.97;;;11.03;68.77
22830;BME280;11581;51.250;6.778;2022-11-25T02:05:52;100720.19;;;11.38;68.69
22830;BME280;11581;51.250;6.778;2022-11-25T02:08:23;100721.03;;;11.38;68.96
22830;BME280;11581;51.250;6.778;2022-11-25T02:10:54;100693.72;;;11.26;68.63
22830;BME280;11581;51.250;6.778;2022-11-25T02:13:21;100700.13;;;11.33;68.96
22830;BME280;11581;51.250;6.778;2022-11-25T02:15:49;100699.88;;;11.45;68.87
22830;BME280;11581;51.250;6.778;2022-11-25T02:18:16;100680.28;;;11.36;69.10
22830;BME280;11581;51.250;6.778;2022-11-25T02:20:44;100697.22;;;11.45;68.92
22830;BME280;11581;51.250;6.778;2022-11-25T02:23:17;100672.81;;;11.40;68.59
22830;BME280;11581;51.250;6.778;2022-11-25T02:25:52;100698.41;;;11.50;68.82
22830;BME280;11581;51.250;6.778;2022-11-25T02:28:21;100690.25;;;11.52;69.06
22830;BME280;11581;51.250;6.778;2022-11-25T02:30:49;100644.44;;;11.21;69.04
22830;BME280;11581;51.250;6.778;2022-11-25T02:33:17;100697.81;;;11.56;69.17
22830;BME280;11581;51.250;6.778;2022-11-25T02:35:48;100674.53;;;11.49;69.09
22830;BME280;11581;51.250;6.778;2022-11-25T02:38:21;100691.31;;;11.59;68.63
22830;BME280;11581;51.250;6.778;2022-11-25T02:40:54;100683.00;;;11.62;68.77
22830;BME280;11581;51.250;6.778;2022-11-25T02:43:22;100693.41;;;11.65;69.12
22830;BME280;11581;51.250;6.778;2022-11-25T02:45:55;100687.91;;;11.66;68.67
22830;BME280;11581;51.250;6.778;2022-11-25T02:48:23;100687.75;;;11.68;69.10
22830;BME280;11581;51.250;6.778;2022-11-25T02:50:50;100694.09;;;11.67;69.15
22830;BME280;11581;51.250;6.778;2022-11-25T02:53:18;100700.63;;;11.72;69.13
22830;BME280;11581;51.250;6.778;2022-11-25T02:55:46;100693.78;;;11.70;69.12
22830;BME280;11581;51.250;6.778;2022-11-25T02:58:15;100682.63;;;11.57;69.01
22830;BME280;11581;51.250;6.778;2022-11-25T03:00:43;100710.53;;;11.80;69.08
22830;BME280;11581;51.250;6.778;2022-11-25T03:03:13;100703.22;;;11.82;69.06
22830;BME280;11581;51.250;6.778;2022-11-25T03:05:40;100686.78;;;11.69;69.12
22830;BME280;11581;51.250;6.778;2022-11-25T03:08:08;100716.13;;;11.86;69.15
22830;BME280;11581;51.250;6.778;2022-11-25T03:10:36;100718.94;;;11.85;68.97
22830;BME280;11581;51.250;6.778;2022-11-25T03:13:05;100699.59;;;11.91;69.04
22830;BME280;11581;51.250;6.778;2022-11-25T03:15:34;100701.13;;;11.93;68.77
22830;BME280;11581;51.250;6.778;2022-11-25T03:18:01;100683.66;;;11.81;69.00
22830;BME280;11581;51.250;6.778;2022-11-25T03:20:29;100680.06;;;11.90;69.10
22830;BME280;11581;51.250;6.778;2022-11-25T03:22:56;100698.66;;;12.00;68.93
22830;BME280;11581;51.250;6.778;2022-11-25T03:25:23;100701.16;;;12.01;68.99
22830;BME280;11581;51.250;6.778;2022-11-25T03:27:50;100699.97;;;11.96;68.90
22830;BME280;11581;51.250;6.778;2022-11-25T03:30:19;100693.47;;;11.98;68.85
22830;BME280;11581;51.250;6.778;2022-11-25T03:32:50;100704.06;;;12.08;68.62
22830;BME280;11581;51.250;6.778;2022-11-25T03:35:17;100700.22;;;12.10;68.78
22830;BME280;11581;51.250;6.778;2022-11-25T03:37:44;100717.94;;;12.11;68.71
22830;BME280;11581;51.250;6.778;2022-11-25T03:40:12;100717.78;;;12.13;68.74
22830;BME280;11581;51.250;6.778;2022-11-25T03:42:40;100711.06;;;12.09;68.70
22830;BME280;11581;51.250;6.778;2022-11-25T03:45:08;100731.84;;;12.15;68.70
22830;BME280;11581;51.250;6.778;2022-11-25T03:47:38;100741.38;;;12.17;68.70
22830;BME280;11581;51.250;6.778;2022-11-25T03:50:12;100663.63;;;11.77;67.98
22830;BME280;11581;51.250;6.778;2022-11-25T03:52:39;100743.88;;;12.19;68.90
22830;BME280;11581;51.250;6.778;2022-11-25T03:55:08;100725.63;;;12.14;68.54
22830;BME280;11581;51.250;6.778;2022-11-25T03:57:38;100749.22;;;12.19;68.76
22830;BME280;11581;51.250;6.778;2022-11-25T04:00:06;100750.44;;;12.24;69.12
22830;BME280;11581;51.250;6.778;2022-11-25T04:02:43;100750.13;;;12.27;69.29
22830;BME280;11581;51.250;6.778;2022-11-25T04:05:15;100750.28;;;12.26;69.07
22830;BME280;11581;51.250;6.778;2022-11-25T04:07:42;100753.25;;;12.23;69.32
22830;BME280;11581;51.250;6.778;2022-11-25T04:10:10;100744.50;;;12.13;69.41
22830;BME280;11581;51.250;6.778;2022-11-25T04:12:37;100739.28;;;12.03;69.39
22830;BME280;11581;51.250;6.778;2022-11-25T04:15:16;100723.28;;;11.86;69.63
22830;BME280;11581;51.250;6.778;2022-11-25T04:17:47;100729.84;;;11.91;69.65
22830;BME280;11581;51.250;6.778;2022-11-25T04:20:15;100764.34;;;12.02;69.79
22830;BME280;11581;51.250;6.778;2022-11-25T04:22:48;100758.06;;;11.94;69.98
22830;BME280;11581;51.250;6.778;2022-11-25T04:25:16;100750.47;;;11.81;70.15
22830;BME280;11581;51.250;6.778;2022-11-25T04:27:43;100761.06;;;11.91;70.28
22830;BME280;11581;51.250;6.778;2022-11-25T04:30:12;100766.03;;;11.86;70.36
22830;BME280;11581;51.250;6.778;2022-11-25T04:32:41;100762.31;;;11.79;70.58
22830;BME280;11581;51.250;6.778;2022-11-25T04:35:09;100759.25;;;11.74;70.71
22830;BME280;11581;51.250;6.778;2022-11-25T04:37:39;100779.47;;;11.76;70.82
22830;BME280;11581;51.250;6.778;2022-11-25T04:40:09;100758.06;;;11.68;70.89
22830;BME280;11581;51.250;6.778;2022-11-25T04:42:36;100727.13;;;11.48;71.17
22830;BME280;11581;51.250;6.778;2022-11-25T04:45:11;100774.78;;;11.70;71.31
22830;BME280;11581;51.250;6.778;2022-11-25T04:47:40;100789.09;;;11.69;71.37
22830;BME280;11581;51.250;6.778;2022-11-25T04:50:10;100781.53;;;11.65;71.29
22830;BME280;11581;51.250;6.778;2022-11-25T04:52:49;100786.59;;;11.68;71.42
22830;BME280;11581;51.250;6.778;2022-11-25T04:55:17;100786.59;;;11.68;71.56
22830;BME280;11581;51.250;6.778;2022-11-25T04:57:44;100781.25;;;11.68;71.60
22830;BME280;11581;51.250;6.778;2022-11-25T05:00:13;100785.22;;;11.64;71.88
22830;BME280;11581;51.250;6.778;2022-11-25T05:02:40;100791.94;;;11.68;72.02
22830;BME280;11581;51.250;6.778;2022-11-25T05:05:14;100799.13;;;11.67;72.29
22830;BME280;11581;51.250;6.778;2022-11-25T05:07:41;100799.44;;;11.64;72.25
22830;BME280;11581;51.250;6.778;2022-11-25T05:10:10;100802.38;;;11.61;72.71
22830;BME280;11581;51.250;6.778;2022-11-25T05:12:42;100797.34;;;11.58;73.04
22830;BME280;11581;51.250;6.778;2022-11-25T05:15:14;100810.28;;;11.53;73.27
22830;BME280;11581;51.250;6.778;2022-11-25T05:17:44;100797.19;;;11.42;73.64
22830;BME280;11581;51.250;6.778;2022-11-25T05:20:12;100811.19;;;11.44;73.89
22830;BME280;11581;51.250;6.778;2022-11-25T05:22:39;100793.88;;;11.30;74.16
22830;BME280;11581;51.250;6.778;2022-11-25T05:25:12;100814.66;;;11.37;74.38
22830;BME280;11581;51.250;6.778;2022-11-25T05:27:51;100742.84;;;10.89;74.64
22830;BME280;11581;51.250;6.778;2022-11-25T05:30:18;100821.41;;;11.31;74.85
22830;BME280;11581;51.250;6.778;2022-11-25T05:32:45;100817.81;;;11.22;75.08
22830;BME280;11581;51.250;6.778;2022-11-25T05:35:13;100824.56;;;11.26;75.26
22830;BME280;11581;51.250;6.778;2022-11-25T05:37:42;100806.00;;;11.25;75.41
22830;BME280;11581;51.250;6.778;2022-11-25T05:40:10;100795.69;;;11.12;75.82
22830;BME280;11581;51.250;6.778;2022-11-25T05:43:02;100820.47;;;11.22;76.25
22830;BME280;11581;51.250;6.778;2022-11-25T05:45:32;100810.03;;;11.11;76.54
22830;BME280;11581;51.250;6.778;2022-11-25T05:47:59;100786.50;;;10.97;76.62
22830;BME280;11581;51.250;6.778;2022-11-25T05:50:27;100825.16;;;11.20;76.91
22830;BME280;11581;51.250;6.778;2022-11-25T05:53:03;100819.09;;;11.18;77.08
22830;BME280;11581;51.250;6.778;2022-11-25T05:55:33;100812.84;;;11.10;77.09
22830;BME280;11581;51.250;6.778;2022-11-25T05:58:04;100832.44;;;11.18;77.34
22830;BME280;11581;51.250;6.778;2022-11-25T06:00:31;100840.47;;;11.18;77.35
22830;BME280;11581;51.250;6.778;2022-11-25T06:03:01;100841.47;;;11.17;77.62
22830;BME280;11581;51.250;6.778;2022-11-25T06:05:28;100673.06;;;10.22;77.48
22830;BME280;11581;51.250;6.778;2022-11-25T06:07:55;100814.28;;;11.04;77.60
22830;BME280;11581;51.250;6.778;2022-11-25T06:10:23;100846.81;;;11.17;77.50
22830;BME280;11581;51.250;6.778;2022-11-25T06:12:51;100848.47;;;11.18;77.47
22830;BME280;11581;51.250;6.778;2022-11-25T06:15:19;100852.13;;;11.17;77.64
22830;BME280;11581;51.250;6.778;2022-11-25T06:17:46;100850.44;;;11.16;77.50
22830;BME280;11581;51.250;6.778;2022-11-25T06:20:19;100845.44;;;11.13;77.67
22830;BME280;11581;51.250;6.778;2022-11-25T06:22:46;100857.47;;;11.17;77.66
22830;BME280;11581;51.250;6.778;2022-11-25T06:25:17;100840.97;;;11.04;77.59
22830;BME280;11581;51.250;6.778;2022-11-25T06:27:47;100849.91;;;11.13;77.66
22830;BME280;11581;51.250;6.778;2022-11-25T06:30:14;100855.41;;;11.11;77.73
22830;BME280;11581;51.250;6.778;2022-11-25T06:32:48;100874.31;;;11.18;77.68
22830;BME280;11581;51.250;6.778;2022-11-25T06:35:20;100805.81;;;10.82;77.67
22830;BME280;11581;51.250;6.778;2022-11-25T06:37:52;100876.84;;;11.19;77.77
22830;BME280;11581;51.250;6.778;2022-11-25T06:40:18;100874.16;;;11.19;77.79
22830;BME280;11581;51.250;6.778;2022-11-25T06:42:45;100868.75;;;11.11;77.91
22830;BME280;11581;51.250;6.778;2022-11-25T06:45:12;100878.53;;;11.20;77.97
22830;BME280;11581;51.250;6.778;2022-11-25T06:47:38;100867.06;;;11.10;77.60
22830;BME280;11581;51.250;6.778;2022-11-25T06:50:08;100878.53;;;11.20;77.67
22830;BME280;11581;51.250;6.778;2022-11-25T06:52:36;100877.28;;;11.15;77.52
22830;BME280;11581;51.250;6.778;2022-11-25T06:55:03;100837.38;;;10.86;77.41
22830;BME280;11581;51.250;6.778;2022-11-25T06:57:30;100883.63;;;11.14;77.63
22830;BME280;11581;51.250;6.778;2022-11-25T06:59:57;100901.72;;;11.20;77.40
22830;BME280;11581;51.250;6.778;2022-11-25T07:02:24;100907.91;;;11.20;77.50
22830;BME280;11581;51.250;6.778;2022-11-25T07:04:51;100884.19;;;11.08;77.48
22830;BME280;11581;51.250;6.778;2022-11-25T07:07:19;100916.72;;;11.21;77.57
22830;BME280;11581;51.250;6.778;2022-11-25T07:09:46;100917.59;;;11.21;77.58
22830;BME280;11581;51.250;6.778;2022-11-25T07:12:13;100913.25;;;11.20;77.52
22830;BME280;11581;51.250;6.778;2022-11-25T07:14:40;100921.25;;;11.20;77.38
22830;BME280;11581;51.250;6.778;2022-11-25T07:17:07;100928.28;;;11.21;77.22
22830;BME280;11581;51.250;6.778;2022-11-25T07:19:33;100926.59;;;11.20;76.94
22830;BME280;11581;51.250;6.778;2022-11-25T07:22:01;100885.72;;;10.83;76.99
22830;BME280;11581;51.250;6.778;2022-11-25T07:24:29;100872.56;;;10.72;76.99
22830;BME280;11581;51.250;6.778;2022-11-25T07:26:58;100937.56;;;11.17;76.92
22830;BME280;11581;51.250;6.778;2022-11-25T07:29:24;100937.72;;;11.16;76.89
22830;BME280;11581;51.250;6.778;2022-11-25T07:31:52;100782.78;;;10.17;76.74
22830;BME280;11581;51.250;6.778;2022-11-25T07:34:19;100913.19;;;10.93;76.63
22830;BME280;11581;51.250;6.778;2022-11-25T07:36:47;100954.16;;;11.11;76.69
22830;BME280;11581;51.250;6.778;2022-11-25T07:39:16;100841.75;;;10.41;76.56
22830;BME280;11581;51.250;6.778;2022-11-25T07:41:47;100960.78;;;11.07;76.69
22830;BME280;11581;51.250;6.778;2022-11-25T07:44:14;100910.19;;;10.69;76.67
22830;BME280;11581;51.250;6.778;2022-11-25T07:46:57;100939.63;;;10.87;76.86
22830;BME280;11581;51.250;6.778;2022-11-25T07:49:24;100981.44;;;11.05;76.96
22830;BME280;11581;51.250;6.778;2022-11-25T07:51:52;100923.69;;;10.58;76.98
22830;BME280;11581;51.250;6.778;2022-11-25T07:54:20;100990.44;;;11.04;77.00
22830;BME280;11581;51.250;6.778;2022-11-25T07:56:50;100990.88;;;11.00;76.86
22830;BME280;11581;51.250;6.778;2022-11-25T07:59:19;100992.97;;;11.06;77.49
22830;BME280;11581;51.250;6.778;2022-11-25T08:01:47;100995.50;;;11.07;78.02
22830;BME280;11581;51.250;6.778;2022-11-25T08:04:15;101003.59;;;11.15;79.12
22830;BME280;11581;51.250;6.778;2022-11-25T08:06:43;100994.56;;;11.26;80.61
22830;BME280;11581;51.250;6.778;2022-11-25T08:09:11;101000.00;;;11.44;81.49
22830;BME280;11581;51.250;6.778;2022-11-25T08:11:39;100991.47;;;11.58;81.63
22830;BME280;11581;51.250;6.778;2022-11-25T08:14:08;101000.81;;;11.81;80.94
22830;BME280;11581;51.250;6.778;2022-11-25T08:16:35;101014.22;;;11.98;80.50
22830;BME280;11581;51.250;6.778;2022-11-25T08:19:08;101005.69;;;12.12;79.27
22830;BME280;11581;51.250;6.778;2022-11-25T08:21:36;101007.91;;;12.17;78.90
22830;BME280;11581;51.250;6.778;2022-11-25T08:24:02;100973.66;;;12.03;77.68
22830;BME280;11581;51.250;6.778;2022-11-25T08:26:31;101024.91;;;12.43;76.73
22830;BME280;11581;51.250;6.778;2022-11-25T08:29:02;101046.81;;;12.46;76.20
22830;BME280;11581;51.250;6.778;2022-11-25T08:31:32;101033.13;;;12.49;75.45
22830;BME280;11581;51.250;6.778;2022-11-25T08:33:59;101030.31;;;12.51;75.85
22830;BME280;11581;51.250;6.778;2022-11-25T08:36:27;101019.84;;;12.40;75.56
22830;BME280;11581;51.250;6.778;2022-11-25T08:38:56;101046.75;;;12.56;75.66
22830;BME280;11581;51.250;6.778;2022-11-25T08:41:24;100962.78;;;12.14;76.29
22830;BME280;11581;51.250;6.778;2022-11-25T08:43:53;101050.84;;;12.68;77.58
22830;BME280;11581;51.250;6.778;2022-11-25T08:46:24;101051.31;;;12.81;77.52
22830;BME280;11581;51.250;6.778;2022-11-25T08:48:53;101031.59;;;12.82;77.30
22830;BME280;11581;51.250;6.778;2022-11-25T08:51:23;101039.31;;;13.02;76.25
22830;BME280;11581;51.250;6.778;2022-11-25T08:53:50;101053.66;;;13.19;76.00
22830;BME280;11581;51.250;6.778;2022-11-25T08:56:20;101036.78;;;13.26;76.39
22830;BME280;11581;51.250;6.778;2022-11-25T08:58:47;101047.13;;;13.47;76.77
22830;BME280;11581;51.250;6.778;2022-11-25T09:01:15;101032.47;;;13.59;77.02
22830;BME280;11581;51.250;6.778;2022-11-25T09:03:43;101061.94;;;13.93;76.79
22830;BME280;11581;51.250;6.778;2022-11-25T09:06:12;101028.97;;;14.08;76.37
22830;BME280;11581;51.250;6.778;2022-11-25T09:08:43;101046.00;;;14.41;75.88
22830;BME280;11581;51.250;6.778;2022-11-25T09:11:11;101021.19;;;14.39;74.99
22830;BME280;11581;51.250;6.778;2022-11-25T09:13:37;101033.97;;;14.53;73.72
22830;BME280;11581;51.250;6.778;2022-11-25T09:16:05;101060.84;;;14.85;71.99
22830;BME280;11581;51.250;6.778;2022-11-25T09:18:33;101055.97;;;14.88;71.68
22830;BME280;11581;51.250;6.778;2022-11-25T09:21:06;101075.59;;;15.13;69.09
22830;BME280;11581;51.250;6.778;2022-11-25T09:23:34;101077.47;;;15.20;69.70
22830;BME280;11581;51.250;6.778;2022-11-25T09:26:01;101078.78;;;15.24;70.04
22830;BME280;11581;51.250;6.778;2022-11-25T09:28:28;101086.19;;;15.30;70.11
22830;BME280;11581;51.250;6.778;2022-11-25T09:30:56;101088.22;;;15.36;70.10
22830;BME280;11581;51.250;6.778;2022-11-25T09:33:24;101080.28;;;15.35;69.93
22830;BME280;11581;51.250;6.778;2022-11-25T09:35:51;101087.50;;;15.42;69.53
22830;BME280;11581;51.250;6.778;2022-11-25T09:38:20;101067.03;;;15.33;69.98
22830;BME280;11581;51.250;6.778;2022-11-25T09:40:52;101100.06;;;15.66;67.20
22830;BME280;11581;51.250;6.778;2022-11-25T09:43:34;101100.38;;;15.79;66.47
22830;BME280;11581;51.250;6.778;2022-11-25T09:46:38;101104.53;;;15.98;66.92
22830;BME280;11581;51.250;6.778;2022-11-25T09:49:28;101079.41;;;16.13;67.77
22830;BME280;11581;51.250;6.778;2022-11-25T09:52:08;101095.84;;;16.57;68.08
22830;BME280;11581;51.250;6.778;2022-11-25T09:54:41;101102.06;;;17.02;69.57
22830;BME280;11581;51.250;6.778;2022-11-25T09:57:19;101112.00;;;17.47;65.28
22830;BME280;11581;51.250;6.778;2022-11-25T09:59:56;101129.47;;;17.88;63.96
22830;BME280;11581;51.250;6.778;2022-11-25T10:02:33;101132.16;;;18.17;62.17
22830;BME280;11581;51.250;6.778;2022-11-25T10:05:05;101131.41;;;18.38;61.85
22830;BME280;11581;51.250;6.778;2022-11-25T10:07:37;101095.16;;;18.32;61.49
22830;BME280;11581;51.250;6.778;2022-11-25T10:10:09;101116.63;;;18.69;61.97
22830;BME280;11581;51.250;6.778;2022-11-25T10:12:44;101121.69;;;18.79;59.19
22830;BME280;11581;51.250;6.778;2022-11-25T10:15:16;101062.94;;;18.45;58.76
22830;BME280;11581;51.250;6.778;2022-11-25T10:17:47;101135.94;;;18.87;58.21
22830;BME280;11581;51.250;6.778;2022-11-25T10:20:20;101135.69;;;18.82;56.46
22830;BME280;11581;51.250;6.778;2022-11-25T10:22:50;101136.63;;;18.75;58.45
22830;BME280;11581;51.250;6.778;2022-11-25T10:25:22;101142.13;;;18.67;58.24
22830;BME280;11581;51.250;6.778;2022-11-25T10:27:55;101139.47;;;18.52;56.54
22830;BME280;11581;51.250;6.778;2022-11-25T10:30:26;101148.88;;;18.56;58.69
22830;BME280;11581;51.250;6.778;2022-11-25T10:33:04;101153.25;;;18.57;57.25
22830;BME280;11581;51.250;6.778;2022-11-25T10:35:37;101125.44;;;18.42;56.81
22830;BME280;11581;51.250;6.778;2022-11-25T10:38:11;101153.75;;;18.46;56.47
22830;BME280;11581;51.250;6.778;2022-11-25T10:40:42;101128.22;;;18.34;57.15
22830;BME280;11581;51.250;6.778;2022-11-25T10:43:12;101135.28;;;18.35;58.24
22830;BME280;11581;51.250;6.778;2022-11-25T10:45:44;101165.38;;;18.47;57.49
22830;BME280;11581;51.250;6.778;2022-11-25T10:48:26;101148.78;;;18.35;55.97
22830;BME280;11581;51.250;6.778;2022-11-25T10:51:15;101172.66;;;18.46;56.00
22830;BME280;11581;51.250;6.778;2022-11-25T10:54:07;101158.59;;;18.36;55.96
22830;BME280;11581;51.250;6.778;2022-11-25T10:56:41;101158.00;;;18.26;55.17
22830;BME280;11581;51.250;6.778;2022-11-25T10:59:14;101172.53;;;18.25;55.95
22830;BME280;11581;51.250;6.778;2022-11-25T11:01:50;101176.53;;;18.15;58.01
22830;BME280;11581;51.250;6.778;2022-11-25T11:04:18;101175.53;;;18.01;58.48
22830;BME280;11581;51.250;6.778;2022-11-25T11:06:47;101181.94;;;18.00;58.82
22830;BME280;11581;51.250;6.778;2022-11-25T11:09:34;101185.91;;;18.04;57.34
22830;BME280;11581;51.250;6.778;2022-11-25T11:12:13;101166.75;;;17.99;56.57
22830;BME280;11581;51.250;6.778;2022-11-25T11:14:42;101166.97;;;18.12;58.23
22830;BME280;11581;51.250;6.778;2022-11-25T11:17:26;101185.19;;;18.25;55.57
22830;BME280;11581;51.250;6.778;2022-11-25T11:20:14;101183.72;;;18.22;56.59
22830;BME280;11581;51.250;6.778;2022-11-25T11:22:48;101168.44;;;18.29;57.95
22830;BME280;11581;51.250;6.778;2022-11-25T11:25:28;101175.91;;;18.56;57.11
22830;BME280;11581;51.250;6.778;2022-11-25T11:27:55;101187.09;;;18.89;60.67
22830;BME280;11581;51.250;6.778;2022-11-25T11:30:29;101188.22;;;19.15;56.45
22830;BME280;11581;51.250;6.778;2022-11-25T11:33:01;101175.50;;;19.30;57.28
22830;BME280;11581;51.250;6.778;2022-11-25T11:35:46;101192.09;;;19.69;55.36
22830;BME280;11581;51.250;6.778;2022-11-25T11:38:27;101178.88;;;19.87;53.99
22830;BME280;11581;51.250;6.778;2022-11-25T11:41:04;101135.97;;;19.84;53.19
22830;BME280;11581;51.250;6.778;2022-11-25T11:43:44;101120.97;;;19.82;52.80
22830;BME280;11581;51.250;6.778;2022-11-25T11:46:29;101201.00;;;20.53;51.30
22830;BME280;11581;51.250;6.778;2022-11-25T11:49:15;101204.56;;;20.60;50.66
22830;BME280;11581;51.250;6.778;2022-11-25T11:51:54;101205.19;;;20.62;51.21
22830;BME280;11581;51.250;6.778;2022-11-25T11:54:28;101207.69;;;20.63;51.28
22830;BME280;11581;51.250;6.778;2022-11-25T11:57:04;101220.03;;;20.72;52.33
22830;BME280;11581;51.250;6.778;2022-11-25T11:59:44;101159.31;;;20.54;51.13
22830;BME280;11581;51.250;6.778;2022-11-25T12:02:27;101203.75;;;21.06;51.49
22830;BME280;11581;51.250;6.778;2022-11-25T12:05:05;101206.72;;;21.37;51.08
22830;BME280;11581;51.250;6.778;2022-11-25T12:07:43;101157.47;;;21.34;51.16
22830;BME280;11581;51.250;6.778;2022-11-25T12:10:18;101222.84;;;21.91;48.80
22830;BME280;11581;51.250;6.778;2022-11-25T12:12:52;101155.78;;;21.59;50.05
22830;BME280;11581;51.250;6.778;2022-11-25T12:15:36;101218.47;;;22.10;48.84
22830;BME280;11581;51.250;6.778;2022-11-25T12:18:14;101230.16;;;22.17;48.06
22830;BME280;11581;51.250;6.778;2022-11-25T12:20:49;101220.09;;;22.04;47.37
22830;BME280;11581;51.250;6.778;2022-11-25T12:23:24;101235.81;;;22.02;46.70
22830;BME280;11581;51.250;6.778;2022-11-25T12:25:57;101244.38;;;21.86;45.81
22830;BME280;11581;51.250;6.778;2022-11-25T12:28:31;101244.72;;;21.63;46.54
22830;BME280;11581;51.250;6.778;2022-11-25T12:31:10;101255.97;;;21.41;46.90
22830;BME280;11581;51.250;6.778;2022-11-25T12:33:48;101248.81;;;21.27;47.09
22830;BME280;11581;51.250;6.778;2022-11-25T12:36:25;101249.47;;;21.22;48.79
22830;BME280;11581;51.250;6.778;2022-11-25T12:38:55;101246.31;;;21.19;51.17
22830;BME280;11581;51.250;6.778;2022-11-25T12:41:35;101250.91;;;21.18;49.80
22830;BME280;11581;51.250;6.778;2022-11-25T12:44:10;101241.34;;;21.29;49.48
22830;BME280;11581;51.250;6.778;2022-11-25T12:46:44;101260.59;;;21.47;48.06
22830;BME280;11581;51.250;6.778;2022-11-25T12:49:16;101230.91;;;21.19;46.47
22830;BME280;11581;51.250;6.778;2022-11-25T12:54:58;101279.88;;;21.11;47.27
22830;BME280;11581;51.250;6.778;2022-11-25T12:57:44;101279.94;;;20.84;46.27
22830;BME280;11581;51.250;6.778;2022-11-25T13:00:20;101281.94;;;20.69;48.19
22830;BME280;11581;51.250;6.778;2022-11-25T13:06:18;101290.97;;;20.14;47.83
22830;BME280;11581;51.250;6.778;2022-11-25T13:08:58;101289.34;;;19.99;48.49
22830;BME280;11581;51.250;6.778;2022-11-25T13:11:36;101248.25;;;19.67;48.36
22830;BME280;11581;51.250;6.778;2022-11-25T13:14:19;101293.22;;;19.89;48.99
22830;BME280;11581;51.250;6.778;2022-11-25T13:16:50;101297.97;;;19.87;51.21